Weather History for Clarksville, TX

Change the Weather History Date:

Friday, February 8, 2013

  Actual Average (KPRX) Record (KPRX)
Temperature  
Mean Temperature 52 °F -  
Max Temperature 62 °F 53 °F 73 °F (2009)
Min Temperature 42 °F 35 °F 24 °F (2002)
Degree Days  
Heating Degree Days 13    
Growing Degree Days 2 (Base 50)    
Moisture  
Dew Point 37 °F    
Average Humidity 61    
Maximum Humidity 93    
Minimum Humidity 30    
Precipitation  
Precipitation 0.00 in - - ()
Sea Level Pressure  
Sea Level Pressure 30.17 in    
Wind  
Wind Speed 7 mph (NNE)    
Max Wind Speed 12 mph    
Max Gust Speed 18 mph    
Visibility 9 miles    
Events      
Averages and records for this station are not official NWS values.
T = Trace of Precipitation, MM = Missing Value Source: NWS Daily Summary

Daily Weather History Graph

Daily Weather History Graph

Search for Another Location

Airport:

Trip Planner

Search our weather history database for the weather conditions in past years. The results will help you decide how hot, cold, wet, or windy it might be!

Date:

Astronomy

Feb. 08, 2013 Rise Set
Actual Time 7:10 AM CST 5:58 PM CST
Civil Twilight 6:45 AM CST 6:24 PM CST
Nautical Twilight 6:15 AM CST 6:53 PM CST
Astronomical Twilight 5:46 AM CST 7:22 PM CST
Moon 5:37 AM CST (2/8) 4:34 PM CST (2/8)
Length of Visible Light 11h 39m
Length of Day
10h 47m
Waning Crescent, 3% of the Moon is Illuminated
Feb 8
Waning Crescent
Feb 10
New
Feb 17
First Quarter
Feb 25
Full
Mar 4
Last Quarter

Hourly Weather History & Observations

Time (CST) Temp. Windchill Dew Point Humidity Pressure Visibility Wind Dir Wind Speed Gust Speed Precip Events Conditions
12:15 AM 53.6 °F - 50.0 °F 88% 30.03 in 10.0 mi NW 8.1 mph - N/A   Mostly Cloudy
12:35 AM 53.6 °F - 50.0 °F 88% 30.04 in 10.0 mi WNW 8.1 mph - N/A   Mostly Cloudy
12:55 AM 53.6 °F - 50.0 °F 88% 30.04 in 10.0 mi NW 9.2 mph - N/A   Mostly Cloudy
1:15 AM 53.6 °F - 50.0 °F 88% 30.05 in 10.0 mi NW 9.2 mph 18.4 mph N/A   Mostly Cloudy
1:35 AM 51.8 °F - 48.2 °F 88% 30.06 in 10.0 mi NW 9.2 mph - N/A   Scattered Clouds
1:55 AM 51.8 °F - 48.2 °F 88% 30.06 in 10.0 mi NW 11.5 mph 17.3 mph N/A   Scattered Clouds
2:15 AM 51.8 °F - 46.4 °F 82% 30.07 in 10.0 mi NW 6.9 mph - N/A   Mostly Cloudy
2:35 AM 51.8 °F - 46.4 °F 82% 30.07 in 7.0 mi NNW 8.1 mph - N/A   Mostly Cloudy
2:55 AM 51.8 °F - 46.4 °F 82% 30.08 in 7.0 mi NNW 8.1 mph 16.1 mph N/A   Scattered Clouds
3:35 AM 50.0 °F - 46.4 °F 87% 30.09 in 7.0 mi NW 6.9 mph - N/A   Scattered Clouds
3:55 AM 50.0 °F - 44.6 °F 82% 30.10 in 7.0 mi NW 5.8 mph - N/A   Clear
4:15 AM 48.2 °F - 44.6 °F 87% 30.11 in 7.0 mi NW 8.1 mph - N/A   Clear
4:35 AM 46.4 °F 42.4 °F 42.8 °F 87% 30.11 in 10.0 mi NW 8.1 mph - N/A   Clear
5:15 AM 46.4 °F 43.5 °F 42.8 °F 87% 30.13 in 7.0 mi NW 5.8 mph - N/A   Clear
5:35 AM 44.6 °F 40.2 °F 42.8 °F 93% 30.14 in 7.0 mi NW 8.1 mph - N/A   Clear
6:15 AM 44.6 °F 41.4 °F 41.0 °F 87% 30.16 in 7.0 mi NW 5.8 mph - N/A   Clear
6:35 AM 42.8 °F 39.3 °F 41.0 °F 93% 30.17 in 7.0 mi NW 5.8 mph - N/A   Clear
6:55 AM 42.8 °F 39.3 °F 41.0 °F 93% 30.18 in 7.0 mi NNW 5.8 mph - N/A   Clear
7:15 AM 42.8 °F 39.3 °F 39.2 °F 87% 30.19 in 5.0 mi NW 5.8 mph - N/A   Clear
7:35 AM 42.8 °F 38.6 °F 39.2 °F 87% 30.20 in 5.0 mi NW 6.9 mph - N/A   Clear
7:55 AM 42.8 °F 38.6 °F 39.2 °F 87% 30.21 in 5.0 mi NW 6.9 mph - N/A   Clear
8:15 AM 42.8 °F 38.6 °F 39.2 °F 87% 30.21 in 5.0 mi NNW 6.9 mph - N/A   Clear
8:35 AM 44.6 °F 42.2 °F 41.0 °F 87% 30.22 in 7.0 mi NNW 4.6 mph - N/A   Clear
8:55 AM 44.6 °F 39.2 °F 39.2 °F 81% 30.22 in 5.0 mi North 10.4 mph - N/A   Clear
9:15 AM 46.4 °F 41.5 °F 39.2 °F 76% 30.23 in 10.0 mi North 10.4 mph - N/A   Clear
9:35 AM 48.2 °F - 39.2 °F 71% 30.24 in 7.0 mi North 5.8 mph - N/A   Clear
9:55 AM 50.0 °F - 37.4 °F 62% 30.25 in 10.0 mi North 6.9 mph - N/A   Clear
10:15 AM 50.0 °F - 37.4 °F 62% 30.26 in 10.0 mi NNE 8.1 mph - N/A   Clear
10:35 AM 51.8 °F - 37.4 °F 58% 30.25 in 10.0 mi North 6.9 mph - N/A   Clear
10:55 AM 51.8 °F - 37.4 °F 58% 30.25 in 10.0 mi NNE 8.1 mph - N/A   Clear
11:15 AM 53.6 °F - 35.6 °F 51% 30.25 in 10.0 mi North 8.1 mph - N/A   Clear
11:35 AM 55.4 °F - 35.6 °F 47% 30.25 in 10.0 mi NNE 5.8 mph - N/A   Clear
11:55 AM 55.4 °F - 35.6 °F 47% 30.25 in 10.0 mi NNE 6.9 mph - N/A   Clear
12:15 PM 57.2 °F - 35.6 °F 44% 30.23 in 10.0 mi NE 4.6 mph - N/A   Clear
12:35 PM 57.2 °F - 33.8 °F 41% 30.22 in 10.0 mi North 8.1 mph - N/A   Clear
12:55 PM 59.0 °F - 35.6 °F 42% 30.22 in 10.0 mi NNE 8.1 mph - N/A   Clear
1:15 PM 59.0 °F - 35.6 °F 42% 30.20 in 10.0 mi ENE 6.9 mph - N/A   Clear
1:35 PM 60.8 °F - 32.0 °F 34% 30.19 in 10.0 mi ENE 4.6 mph - N/A   Clear
1:55 PM 60.8 °F - 32.0 °F 34% 30.19 in 10.0 mi East 6.9 mph - N/A   Clear
2:15 PM 60.8 °F - 32.0 °F 34% 30.19 in 10.0 mi East 5.8 mph - N/A   Clear
2:35 PM 60.8 °F - 32.0 °F 34% 30.19 in 10.0 mi NE 5.8 mph - N/A   Clear
2:55 PM 60.8 °F - 32.0 °F 34% 30.18 in 10.0 mi NNE 6.9 mph - N/A   Clear
3:15 PM 62.6 °F - 32.0 °F 32% 30.18 in 10.0 mi NE 3.5 mph - N/A   Clear
3:35 PM 62.6 °F - 32.0 °F 32% 30.18 in 10.0 mi NE 4.6 mph - N/A   Clear
3:55 PM 62.6 °F - 32.0 °F 32% 30.17 in 10.0 mi NE 5.8 mph - N/A   Clear
4:15 PM 62.6 °F - 32.0 °F 32% 30.17 in 10.0 mi ENE 6.9 mph - N/A   Clear
4:35 PM 62.6 °F - 30.2 °F 30% 30.16 in 10.0 mi ENE 8.1 mph - N/A   Clear
4:55 PM 60.8 °F - 30.2 °F 31% 30.16 in 10.0 mi East 8.1 mph - N/A   Clear
5:15 PM 60.8 °F - 30.2 °F 31% 30.17 in 10.0 mi East 5.8 mph - N/A   Clear
5:35 PM 59.0 °F - 32.0 °F 36% 30.17 in 10.0 mi ENE 5.8 mph - N/A   Clear
5:55 PM 57.2 °F - 32.0 °F 38% 30.18 in 10.0 mi Calm Calm - N/A   Clear
6:15 PM 55.4 °F - 32.0 °F 41% 30.19 in 10.0 mi Calm Calm - N/A   Clear
6:35 PM 53.6 °F - 33.8 °F 47% 30.19 in 10.0 mi Calm Calm - N/A   Clear
6:55 PM 53.6 °F - 32.0 °F 44% 30.19 in 10.0 mi ENE 3.5 mph - N/A   Clear
7:15 PM 53.6 °F - 32.0 °F 44% 30.19 in 10.0 mi ENE 3.5 mph - N/A   Clear
7:35 PM 53.6 °F - 32.0 °F 44% 30.19 in 10.0 mi East 4.6 mph - N/A   Clear
7:55 PM 51.8 °F - 32.0 °F 47% 30.20 in 10.0 mi East 5.8 mph - N/A   Clear
8:15 PM 51.8 °F - 32.0 °F 47% 30.20 in 10.0 mi East 5.8 mph - N/A   Clear
8:35 PM 51.8 °F - 32.0 °F 47% 30.19 in 7.0 mi ENE 6.9 mph - N/A   Clear
8:55 PM 50.0 °F - 33.8 °F 54% 30.19 in 5.0 mi ENE 6.9 mph - N/A   Clear
9:15 PM 50.0 °F - 33.8 °F 54% 30.19 in 7.0 mi East 6.9 mph - N/A   Clear
9:35 PM 50.0 °F - 33.8 °F 54% 30.20 in 10.0 mi East 5.8 mph - N/A   Clear
9:55 PM 50.0 °F - 33.8 °F 54% 30.19 in 7.0 mi East 5.8 mph - N/A   Clear
10:15 PM 50.0 °F - 33.8 °F 54% 30.19 in 10.0 mi East 5.8 mph - N/A   Clear
10:35 PM 50.0 °F - 33.8 °F 54% 30.19 in 10.0 mi East 6.9 mph - N/A   Clear
10:55 PM 48.2 °F - 35.6 °F 62% 30.19 in 10.0 mi East 8.1 mph - N/A   Clear
11:15 PM 48.2 °F - 35.6 °F 62% 30.19 in 10.0 mi East 6.9 mph - N/A   Clear
11:35 PM 46.4 °F 44.3 °F 35.6 °F 66% 30.20 in 10.0 mi East 4.6 mph - N/A   Clear
11:55 PM 46.4 °F 43.5 °F 35.6 °F 66% 30.20 in 10.0 mi East 5.8 mph - N/A   Clear